sensor_id;sensor_type;location;lat;lon;timestamp;P1;durP1;ratioP1;P2;durP2;ratioP2
25247;SDS011;13191;47.472;11.214;2022-12-08T00:00:47;1.85;;;1.08;;
25247;SDS011;13191;47.472;11.214;2022-12-08T00:03:13;2.50;;;1.38;;
25247;SDS011;13191;47.472;11.214;2022-12-08T00:05:43;10.10;;;1.25;;
25247;SDS011;13191;47.472;11.214;2022-12-08T00:08:31;2.05;;;1.13;;
25247;SDS011;13191;47.472;11.214;2022-12-08T00:11:15;3.83;;;1.30;;
25247;SDS011;13191;47.472;11.214;2022-12-08T00:13:42;3.50;;;1.90;;
25247;SDS011;13191;47.472;11.214;2022-12-08T00:16:07;2.40;;;1.10;;
25247;SDS011;13191;47.472;11.214;2022-12-08T00:18:33;3.03;;;1.25;;
25247;SDS011;13191;47.472;11.214;2022-12-08T00:20:59;2.50;;;1.20;;
25247;SDS011;13191;47.472;11.214;2022-12-08T00:23:25;2.08;;;1.05;;
25247;SDS011;13191;47.472;11.214;2022-12-08T00:25:50;2.25;;;1.10;;
25247;SDS011;13191;47.472;11.214;2022-12-08T00:28:16;2.97;;;1.20;;
25247;SDS011;13191;47.472;11.214;2022-12-08T00:30:42;3.20;;;1.40;;
25247;SDS011;13191;47.472;11.214;2022-12-08T00:33:08;3.75;;;1.13;;
25247;SDS011;13191;47.472;11.214;2022-12-08T00:35:35;2.83;;;1.33;;
25247;SDS011;13191;47.472;11.214;2022-12-08T00:38:01;3.35;;;1.58;;
25247;SDS011;13191;47.472;11.214;2022-12-08T00:40:27;3.15;;;1.45;;
25247;SDS011;13191;47.472;11.214;2022-12-08T00:42:53;3.00;;;1.80;;
25247;SDS011;13191;47.472;11.214;2022-12-08T00:45:18;2.88;;;1.58;;
25247;SDS011;13191;47.472;11.214;2022-12-08T00:47:44;2.53;;;1.00;;
25247;SDS011;13191;47.472;11.214;2022-12-08T00:50:09;1.13;;;0.77;;
25247;SDS011;13191;47.472;11.214;2022-12-08T00:52:35;1.70;;;1.05;;
25247;SDS011;13191;47.472;11.214;2022-12-08T00:55:01;3.28;;;1.10;;
25247;SDS011;13191;47.472;11.214;2022-12-08T00:57:28;3.97;;;1.17;;
25247;SDS011;13191;47.472;11.214;2022-12-08T00:59:53;3.35;;;1.40;;
25247;SDS011;13191;47.472;11.214;2022-12-08T01:02:19;2.30;;;1.10;;
25247;SDS011;13191;47.472;11.214;2022-12-08T01:04:44;2.42;;;1.23;;
25247;SDS011;13191;47.472;11.214;2022-12-08T01:07:10;1.10;;;0.80;;
25247;SDS011;13191;47.472;11.214;2022-12-08T01:09:35;1.48;;;0.95;;
25247;SDS011;13191;47.472;11.214;2022-12-08T01:12:01;3.13;;;1.35;;
25247;SDS011;13191;47.472;11.214;2022-12-08T01:14:27;2.45;;;1.40;;
25247;SDS011;13191;47.472;11.214;2022-12-08T01:16:52;3.67;;;1.45;;
25247;SDS011;13191;47.472;11.214;2022-12-08T01:19:18;2.20;;;1.10;;
25247;SDS011;13191;47.472;11.214;2022-12-08T01:21:44;2.50;;;1.30;;
25247;SDS011;13191;47.472;11.214;2022-12-08T01:24:10;2.97;;;1.50;;
25247;SDS011;13191;47.472;11.214;2022-12-08T01:26:40;2.92;;;1.40;;
25247;SDS011;13191;47.472;11.214;2022-12-08T01:29:06;2.10;;;1.23;;
25247;SDS011;13191;47.472;11.214;2022-12-08T01:31:32;4.30;;;1.88;;
25247;SDS011;13191;47.472;11.214;2022-12-08T01:33:58;4.55;;;1.45;;
25247;SDS011;13191;47.472;11.214;2022-12-08T01:36:24;2.22;;;1.05;;
25247;SDS011;13191;47.472;11.214;2022-12-08T01:38:52;4.95;;;1.85;;
25247;SDS011;13191;47.472;11.214;2022-12-08T01:41:20;4.38;;;1.85;;
25247;SDS011;13191;47.472;11.214;2022-12-08T01:43:52;2.70;;;1.25;;
25247;SDS011;13191;47.472;11.214;2022-12-08T01:46:18;4.00;;;1.17;;
25247;SDS011;13191;47.472;11.214;2022-12-08T01:48:44;2.10;;;1.40;;
25247;SDS011;13191;47.472;11.214;2022-12-08T01:51:09;2.75;;;1.20;;
25247;SDS011;13191;47.472;11.214;2022-12-08T01:53:35;2.55;;;1.10;;
25247;SDS011;13191;47.472;11.214;2022-12-08T01:58:30;3.47;;;1.33;;
25247;SDS011;13191;47.472;11.214;2022-12-08T02:01:02;2.65;;;1.38;;
25247;SDS011;13191;47.472;11.214;2022-12-08T02:03:48;3.35;;;1.85;;
25247;SDS011;13191;47.472;11.214;2022-12-08T02:06:19;15.05;;;1.35;;
25247;SDS011;13191;47.472;11.214;2022-12-08T02:08:45;4.30;;;1.83;;
25247;SDS011;13191;47.472;11.214;2022-12-08T02:11:12;3.53;;;1.20;;
25247;SDS011;13191;47.472;11.214;2022-12-08T02:13:38;2.03;;;1.60;;
25247;SDS011;13191;47.472;11.214;2022-12-08T02:21:40;2.78;;;1.40;;
25247;SDS011;13191;47.472;11.214;2022-12-08T02:30:37;2.88;;;1.45;;
25247;SDS011;13191;47.472;11.214;2022-12-08T02:35:28;1.83;;;1.17;;
25247;SDS011;13191;47.472;11.214;2022-12-08T02:43:53;3.20;;;1.67;;
25247;SDS011;13191;47.472;11.214;2022-12-08T02:46:30;2.17;;;1.30;;
25247;SDS011;13191;47.472;11.214;2022-12-08T02:48:59;3.85;;;1.95;;
25247;SDS011;13191;47.472;11.214;2022-12-08T02:51:26;2.80;;;1.50;;
25247;SDS011;13191;47.472;11.214;2022-12-08T02:53:51;2.08;;;1.27;;
25247;SDS011;13191;47.472;11.214;2022-12-08T02:56:28;3.45;;;1.33;;
25247;SDS011;13191;47.472;11.214;2022-12-08T03:02:13;3.50;;;1.55;;
25247;SDS011;13191;47.472;11.214;2022-12-08T03:15:36;2.47;;;1.45;;
25247;SDS011;13191;47.472;11.214;2022-12-08T03:18:04;2.25;;;1.30;;
25247;SDS011;13191;47.472;11.214;2022-12-08T03:20:32;4.47;;;2.20;;
25247;SDS011;13191;47.472;11.214;2022-12-08T03:22:59;4.78;;;1.75;;
25247;SDS011;13191;47.472;11.214;2022-12-08T03:25:30;2.92;;;1.52;;
25247;SDS011;13191;47.472;11.214;2022-12-08T03:28:00;2.83;;;1.45;;
25247;SDS011;13191;47.472;11.214;2022-12-08T03:30:26;2.53;;;1.40;;
25247;SDS011;13191;47.472;11.214;2022-12-08T03:32:56;2.38;;;1.20;;
25247;SDS011;13191;47.472;11.214;2022-12-08T03:35:32;3.80;;;1.40;;
25247;SDS011;13191;47.472;11.214;2022-12-08T03:38:06;2.42;;;1.48;;
25247;SDS011;13191;47.472;11.214;2022-12-08T03:40:35;2.90;;;1.58;;
25247;SDS011;13191;47.472;11.214;2022-12-08T03:43:02;3.33;;;1.73;;
25247;SDS011;13191;47.472;11.214;2022-12-08T03:45:27;3.40;;;1.48;;
25247;SDS011;13191;47.472;11.214;2022-12-08T03:47:53;4.47;;;1.65;;
25247;SDS011;13191;47.472;11.214;2022-12-08T03:50:19;2.55;;;1.20;;
25247;SDS011;13191;47.472;11.214;2022-12-08T03:52:45;1.33;;;0.90;;
25247;SDS011;13191;47.472;11.214;2022-12-08T03:55:11;2.75;;;1.40;;
25247;SDS011;13191;47.472;11.214;2022-12-08T03:57:36;4.22;;;1.75;;
25247;SDS011;13191;47.472;11.214;2022-12-08T04:00:03;3.80;;;2.28;;
25247;SDS011;13191;47.472;11.214;2022-12-08T04:02:30;4.28;;;1.42;;
25247;SDS011;13191;47.472;11.214;2022-12-08T04:04:56;2.85;;;1.65;;
25247;SDS011;13191;47.472;11.214;2022-12-08T04:07:21;1.50;;;0.88;;
25247;SDS011;13191;47.472;11.214;2022-12-08T04:09:47;3.08;;;1.40;;
25247;SDS011;13191;47.472;11.214;2022-12-08T04:12:12;1.67;;;1.00;;
25247;SDS011;13191;47.472;11.214;2022-12-08T04:14:38;2.35;;;1.15;;
25247;SDS011;13191;47.472;11.214;2022-12-08T04:17:03;2.95;;;1.58;;
25247;SDS011;13191;47.472;11.214;2022-12-08T04:19:29;2.45;;;1.27;;
25247;SDS011;13191;47.472;11.214;2022-12-08T04:21:54;2.35;;;1.20;;
25247;SDS011;13191;47.472;11.214;2022-12-08T04:24:20;3.95;;;0.98;;
25247;SDS011;13191;47.472;11.214;2022-12-08T04:26:45;2.10;;;1.38;;
25247;SDS011;13191;47.472;11.214;2022-12-08T04:29:13;2.63;;;1.30;;
25247;SDS011;13191;47.472;11.214;2022-12-08T04:31:39;2.45;;;1.15;;
25247;SDS011;13191;47.472;11.214;2022-12-08T04:34:04;2.63;;;1.08;;
25247;SDS011;13191;47.472;11.214;2022-12-08T04:36:30;4.50;;;1.58;;
25247;SDS011;13191;47.472;11.214;2022-12-08T04:38:56;4.88;;;1.77;;
25247;SDS011;13191;47.472;11.214;2022-12-08T04:41:21;1.65;;;1.13;;
25247;SDS011;13191;47.472;11.214;2022-12-08T04:43:47;2.17;;;1.30;;
25247;SDS011;13191;47.472;11.214;2022-12-08T04:46:12;2.67;;;1.20;;
25247;SDS011;13191;47.472;11.214;2022-12-08T04:48:38;1.77;;;0.95;;
25247;SDS011;13191;47.472;11.214;2022-12-08T04:51:05;5.60;;;1.23;;
25247;SDS011;13191;47.472;11.214;2022-12-08T04:53:31;2.78;;;1.27;;
25247;SDS011;13191;47.472;11.214;2022-12-08T04:55:57;2.25;;;1.70;;
25247;SDS011;13191;47.472;11.214;2022-12-08T04:58:22;3.70;;;1.30;;
25247;SDS011;13191;47.472;11.214;2022-12-08T05:00:48;2.28;;;1.48;;
25247;SDS011;13191;47.472;11.214;2022-12-08T05:03:14;2.15;;;0.80;;
25247;SDS011;13191;47.472;11.214;2022-12-08T05:05:40;2.60;;;1.10;;
25247;SDS011;13191;47.472;11.214;2022-12-08T05:08:07;2.00;;;0.95;;
25247;SDS011;13191;47.472;11.214;2022-12-08T05:10:34;2.33;;;1.20;;
25247;SDS011;13191;47.472;11.214;2022-12-08T05:13:00;2.25;;;1.58;;
25247;SDS011;13191;47.472;11.214;2022-12-08T05:15:25;2.88;;;1.42;;
25247;SDS011;13191;47.472;11.214;2022-12-08T05:17:51;2.50;;;1.20;;
25247;SDS011;13191;47.472;11.214;2022-12-08T05:20:17;3.42;;;1.38;;
25247;SDS011;13191;47.472;11.214;2022-12-08T05:22:43;2.78;;;1.27;;
25247;SDS011;13191;47.472;11.214;2022-12-08T05:25:08;6.35;;;1.60;;
25247;SDS011;13191;47.472;11.214;2022-12-08T05:27:34;2.90;;;1.20;;
25247;SDS011;13191;47.472;11.214;2022-12-08T05:30:00;2.72;;;1.30;;
25247;SDS011;13191;47.472;11.214;2022-12-08T05:32:26;4.10;;;1.40;;
25247;SDS011;13191;47.472;11.214;2022-12-08T05:34:51;2.47;;;1.20;;
25247;SDS011;13191;47.472;11.214;2022-12-08T05:37:17;1.45;;;0.85;;
25247;SDS011;13191;47.472;11.214;2022-12-08T05:39:42;2.45;;;1.35;;
25247;SDS011;13191;47.472;11.214;2022-12-08T05:42:08;1.88;;;1.13;;
25247;SDS011;13191;47.472;11.214;2022-12-08T05:44:33;1.85;;;1.02;;
25247;SDS011;13191;47.472;11.214;2022-12-08T05:46:59;2.83;;;1.23;;
25247;SDS011;13191;47.472;11.214;2022-12-08T05:49:25;2.38;;;1.00;;
25247;SDS011;13191;47.472;11.214;2022-12-08T05:51:50;2.15;;;1.05;;
25247;SDS011;13191;47.472;11.214;2022-12-08T05:54:16;5.15;;;1.90;;
25247;SDS011;13191;47.472;11.214;2022-12-08T05:56:42;4.15;;;1.65;;
25247;SDS011;13191;47.472;11.214;2022-12-08T05:59:07;2.75;;;1.45;;
25247;SDS011;13191;47.472;11.214;2022-12-08T06:01:33;2.60;;;1.13;;
25247;SDS011;13191;47.472;11.214;2022-12-08T06:04:00;2.85;;;1.45;;
25247;SDS011;13191;47.472;11.214;2022-12-08T06:06:27;3.70;;;1.42;;
25247;SDS011;13191;47.472;11.214;2022-12-08T06:08:53;2.90;;;1.10;;
25247;SDS011;13191;47.472;11.214;2022-12-08T06:11:20;1.80;;;0.98;;
25247;SDS011;13191;47.472;11.214;2022-12-08T06:13:47;2.80;;;1.50;;
25247;SDS011;13191;47.472;11.214;2022-12-08T06:16:13;2.03;;;1.10;;
25247;SDS011;13191;47.472;11.214;2022-12-08T06:18:39;3.10;;;1.65;;
25247;SDS011;13191;47.472;11.214;2022-12-08T06:21:05;3.58;;;1.30;;
25247;SDS011;13191;47.472;11.214;2022-12-08T06:23:32;2.45;;;1.10;;
25247;SDS011;13191;47.472;11.214;2022-12-08T06:26:02;2.60;;;1.30;;
25247;SDS011;13191;47.472;11.214;2022-12-08T06:28:32;2.38;;;1.30;;
25247;SDS011;13191;47.472;11.214;2022-12-08T06:30:59;2.08;;;1.15;;
25247;SDS011;13191;47.472;11.214;2022-12-08T06:33:30;2.22;;;1.15;;
25247;SDS011;13191;47.472;11.214;2022-12-08T06:35:57;2.80;;;1.13;;
25247;SDS011;13191;47.472;11.214;2022-12-08T06:38:22;2.90;;;1.40;;
25247;SDS011;13191;47.472;11.214;2022-12-08T06:40:52;3.17;;;1.35;;
25247;SDS011;13191;47.472;11.214;2022-12-08T06:43:18;3.40;;;1.33;;
25247;SDS011;13191;47.472;11.214;2022-12-08T06:45:44;2.05;;;1.02;;
25247;SDS011;13191;47.472;11.214;2022-12-08T06:48:09;2.63;;;1.40;;
25247;SDS011;13191;47.472;11.214;2022-12-08T06:50:35;1.80;;;1.08;;
25247;SDS011;13191;47.472;11.214;2022-12-08T06:53:00;2.10;;;1.08;;
25247;SDS011;13191;47.472;11.214;2022-12-08T06:55:26;3.13;;;1.63;;
25247;SDS011;13191;47.472;11.214;2022-12-08T06:57:52;3.83;;;1.70;;
25247;SDS011;13191;47.472;11.214;2022-12-08T07:00:18;2.33;;;1.25;;
25247;SDS011;13191;47.472;11.214;2022-12-08T07:02:44;3.38;;;1.10;;
25247;SDS011;13191;47.472;11.214;2022-12-08T07:05:10;2.40;;;0.88;;
25247;SDS011;13191;47.472;11.214;2022-12-08T07:07:35;2.13;;;1.20;;
25247;SDS011;13191;47.472;11.214;2022-12-08T07:10:01;2.65;;;1.35;;
25247;SDS011;13191;47.472;11.214;2022-12-08T07:12:27;1.85;;;0.88;;
25247;SDS011;13191;47.472;11.214;2022-12-08T07:14:52;3.35;;;1.60;;
25247;SDS011;13191;47.472;11.214;2022-12-08T07:17:18;2.83;;;1.45;;
25247;SDS011;13191;47.472;11.214;2022-12-08T07:19:43;2.30;;;1.10;;
25247;SDS011;13191;47.472;11.214;2022-12-08T07:22:09;2.13;;;1.15;;
25247;SDS011;13191;47.472;11.214;2022-12-08T07:24:34;2.17;;;1.15;;
25247;SDS011;13191;47.472;11.214;2022-12-08T07:27:00;3.88;;;1.30;;
25247;SDS011;13191;47.472;11.214;2022-12-08T07:29:26;2.20;;;0.95;;
25247;SDS011;13191;47.472;11.214;2022-12-08T07:31:51;3.55;;;1.52;;
25247;SDS011;13191;47.472;11.214;2022-12-08T07:34:17;1.20;;;0.70;;
25247;SDS011;13191;47.472;11.214;2022-12-08T07:36:42;3.72;;;1.40;;
25247;SDS011;13191;47.472;11.214;2022-12-08T07:39:08;2.47;;;1.10;;
25247;SDS011;13191;47.472;11.214;2022-12-08T07:41:33;2.58;;;1.50;;
25247;SDS011;13191;47.472;11.214;2022-12-08T07:43:59;4.55;;;1.60;;
25247;SDS011;13191;47.472;11.214;2022-12-08T07:46:25;2.42;;;1.30;;
25247;SDS011;13191;47.472;11.214;2022-12-08T07:48:51;4.32;;;1.23;;
25247;SDS011;13191;47.472;11.214;2022-12-08T07:51:18;2.55;;;1.30;;
25247;SDS011;13191;47.472;11.214;2022-12-08T07:53:45;4.22;;;1.85;;
25247;SDS011;13191;47.472;11.214;2022-12-08T07:56:12;2.65;;;1.23;;
25247;SDS011;13191;47.472;11.214;2022-12-08T07:58:38;2.75;;;1.35;;
25247;SDS011;13191;47.472;11.214;2022-12-08T08:01:04;2.30;;;1.30;;
25247;SDS011;13191;47.472;11.214;2022-12-08T08:03:30;2.92;;;1.50;;
25247;SDS011;13191;47.472;11.214;2022-12-08T08:06:02;2.13;;;1.10;;
25247;SDS011;13191;47.472;11.214;2022-12-08T08:08:28;3.00;;;1.50;;
25247;SDS011;13191;47.472;11.214;2022-12-08T08:10:54;4.25;;;1.77;;
25247;SDS011;13191;47.472;11.214;2022-12-08T08:13:19;2.70;;;1.55;;
25247;SDS011;13191;47.472;11.214;2022-12-08T08:15:45;3.53;;;2.10;;
25247;SDS011;13191;47.472;11.214;2022-12-08T08:18:10;5.07;;;1.52;;
25247;SDS011;13191;47.472;11.214;2022-12-08T08:20:36;3.13;;;1.65;;
25247;SDS011;13191;47.472;11.214;2022-12-08T08:23:01;2.80;;;1.48;;
25247;SDS011;13191;47.472;11.214;2022-12-08T08:25:27;5.55;;;1.98;;
25247;SDS011;13191;47.472;11.214;2022-12-08T08:27:53;3.78;;;1.65;;
25247;SDS011;13191;47.472;11.214;2022-12-08T08:30:19;2.53;;;1.40;;
25247;SDS011;13191;47.472;11.214;2022-12-08T08:32:44;3.35;;;1.70;;
25247;SDS011;13191;47.472;11.214;2022-12-08T08:35:10;3.38;;;1.80;;
25247;SDS011;13191;47.472;11.214;2022-12-08T08:37:36;2.45;;;1.23;;
25247;SDS011;13191;47.472;11.214;2022-12-08T08:40:02;3.38;;;1.20;;
25247;SDS011;13191;47.472;11.214;2022-12-08T08:42:28;3.20;;;1.95;;
25247;SDS011;13191;47.472;11.214;2022-12-08T08:44:53;4.20;;;2.00;;
25247;SDS011;13191;47.472;11.214;2022-12-08T08:47:19;4.13;;;1.88;;
25247;SDS011;13191;47.472;11.214;2022-12-08T08:49:44;4.53;;;1.65;;
25247;SDS011;13191;47.472;11.214;2022-12-08T08:52:10;3.78;;;1.80;;
25247;SDS011;13191;47.472;11.214;2022-12-08T08:54:36;9.52;;;2.35;;
25247;SDS011;13191;47.472;11.214;2022-12-08T08:57:02;5.88;;;2.10;;
25247;SDS011;13191;47.472;11.214;2022-12-08T08:59:27;5.15;;;1.77;;
25247;SDS011;13191;47.472;11.214;2022-12-08T09:01:53;2.95;;;1.88;;
25247;SDS011;13191;47.472;11.214;2022-12-08T09:04:20;3.63;;;1.73;;
25247;SDS011;13191;47.472;11.214;2022-12-08T09:06:46;4.50;;;1.85;;
25247;SDS011;13191;47.472;11.214;2022-12-08T09:09:12;1.65;;;1.23;;
25247;SDS011;13191;47.472;11.214;2022-12-08T09:11:39;3.03;;;1.45;;
25247;SDS011;13191;47.472;11.214;2022-12-08T09:14:04;5.97;;;1.95;;
25247;SDS011;13191;47.472;11.214;2022-12-08T09:16:30;2.28;;;1.10;;
25247;SDS011;13191;47.472;11.214;2022-12-08T09:18:56;3.25;;;1.65;;
25247;SDS011;13191;47.472;11.214;2022-12-08T09:21:23;3.88;;;1.77;;
25247;SDS011;13191;47.472;11.214;2022-12-08T09:23:51;4.65;;;2.25;;
25247;SDS011;13191;47.472;11.214;2022-12-08T09:26:18;2.72;;;1.75;;
25247;SDS011;13191;47.472;11.214;2022-12-08T09:28:47;3.17;;;1.30;;
25247;SDS011;13191;47.472;11.214;2022-12-08T09:31:18;4.40;;;1.80;;
25247;SDS011;13191;47.472;11.214;2022-12-08T09:33:45;3.28;;;1.60;;
25247;SDS011;13191;47.472;11.214;2022-12-08T09:36:12;1.70;;;1.30;;
25247;SDS011;13191;47.472;11.214;2022-12-08T09:38:38;3.25;;;1.17;;
25247;SDS011;13191;47.472;11.214;2022-12-08T09:41:08;2.65;;;1.33;;
25247;SDS011;13191;47.472;11.214;2022-12-08T09:46:25;4.45;;;1.40;;
25247;SDS011;13191;47.472;11.214;2022-12-08T09:48:54;4.10;;;1.50;;
25247;SDS011;13191;47.472;11.214;2022-12-08T09:51:23;3.33;;;1.58;;
25247;SDS011;13191;47.472;11.214;2022-12-08T09:54:06;2.55;;;1.67;;
25247;SDS011;13191;47.472;11.214;2022-12-08T09:56:41;4.30;;;2.05;;
25247;SDS011;13191;47.472;11.214;2022-12-08T10:01:55;2.70;;;1.60;;
25247;SDS011;13191;47.472;11.214;2022-12-08T10:04:33;4.95;;;1.60;;
25247;SDS011;13191;47.472;11.214;2022-12-08T10:07:23;3.60;;;1.67;;
25247;SDS011;13191;47.472;11.214;2022-12-08T10:10:11;4.65;;;1.85;;
25247;SDS011;13191;47.472;11.214;2022-12-08T10:12:50;4.32;;;2.25;;
25247;SDS011;13191;47.472;11.214;2022-12-08T10:15:27;4.38;;;2.33;;
25247;SDS011;13191;47.472;11.214;2022-12-08T10:20:43;4.38;;;2.15;;
25247;SDS011;13191;47.472;11.214;2022-12-08T10:25:38;4.03;;;2.53;;
25247;SDS011;13191;47.472;11.214;2022-12-08T10:28:09;6.07;;;1.92;;
25247;SDS011;13191;47.472;11.214;2022-12-08T10:30:35;6.32;;;2.10;;
25247;SDS011;13191;47.472;11.214;2022-12-08T10:33:00;5.88;;;1.95;;
25247;SDS011;13191;47.472;11.214;2022-12-08T10:35:41;4.03;;;2.25;;
25247;SDS011;13191;47.472;11.214;2022-12-08T10:38:14;3.85;;;2.03;;
25247;SDS011;13191;47.472;11.214;2022-12-08T10:40:45;5.13;;;2.28;;
25247;SDS011;13191;47.472;11.214;2022-12-08T10:43:16;3.88;;;2.00;;
25247;SDS011;13191;47.472;11.214;2022-12-08T10:45:45;4.60;;;2.30;;
25247;SDS011;13191;47.472;11.214;2022-12-08T10:48:13;6.28;;;2.63;;
25247;SDS011;13191;47.472;11.214;2022-12-08T10:55:46;3.65;;;2.08;;
25247;SDS011;13191;47.472;11.214;2022-12-08T11:00:52;7.97;;;2.42;;
25247;SDS011;13191;47.472;11.214;2022-12-08T11:04:03;3.63;;;2.08;;
25247;SDS011;13191;47.472;11.214;2022-12-08T11:06:15;4.55;;;2.28;;
25247;SDS011;13191;47.472;11.214;2022-12-08T11:08:46;5.95;;;2.05;;
25247;SDS011;13191;47.472;11.214;2022-12-08T11:11:15;5.68;;;1.92;;
25247;SDS011;13191;47.472;11.214;2022-12-08T11:13:41;7.32;;;2.10;;
25247;SDS011;13191;47.472;11.214;2022-12-08T11:16:07;2.25;;;1.40;;
25247;SDS011;13191;47.472;11.214;2022-12-08T11:18:40;5.05;;;1.80;;
25247;SDS011;13191;47.472;11.214;2022-12-08T11:21:12;4.22;;;2.20;;
25247;SDS011;13191;47.472;11.214;2022-12-08T11:23:41;3.45;;;1.40;;
25247;SDS011;13191;47.472;11.214;2022-12-08T11:26:31;4.35;;;1.75;;
25247;SDS011;13191;47.472;11.214;2022-12-08T11:28:59;3.33;;;1.70;;
25247;SDS011;13191;47.472;11.214;2022-12-08T11:31:33;3.58;;;2.08;;
25247;SDS011;13191;47.472;11.214;2022-12-08T11:34:02;2.50;;;1.52;;
25247;SDS011;13191;47.472;11.214;2022-12-08T11:36:30;3.03;;;1.50;;
25247;SDS011;13191;47.472;11.214;2022-12-08T11:39:00;3.63;;;1.73;;
25247;SDS011;13191;47.472;11.214;2022-12-08T11:41:29;4.40;;;1.73;;
25247;SDS011;13191;47.472;11.214;2022-12-08T11:46:33;3.72;;;1.77;;
25247;SDS011;13191;47.472;11.214;2022-12-08T11:49:05;3.50;;;1.67;;
25247;SDS011;13191;47.472;11.214;2022-12-08T11:54:21;2.80;;;1.52;;
25247;SDS011;13191;47.472;11.214;2022-12-08T11:56:52;2.83;;;1.48;;
25247;SDS011;13191;47.472;11.214;2022-12-08T12:01:49;3.60;;;1.67;;
25247;SDS011;13191;47.472;11.214;2022-12-08T12:04:29;5.38;;;1.85;;
25247;SDS011;13191;47.472;11.214;2022-12-08T12:07:05;6.38;;;1.70;;
25247;SDS011;13191;47.472;11.214;2022-12-08T12:12:51;6.40;;;2.40;;
25247;SDS011;13191;47.472;11.214;2022-12-08T12:21:01;4.78;;;1.90;;
25247;SDS011;13191;47.472;11.214;2022-12-08T12:23:38;3.83;;;1.70;;
25247;SDS011;13191;47.472;11.214;2022-12-08T12:26:17;3.40;;;1.23;;
25247;SDS011;13191;47.472;11.214;2022-12-08T12:29:05;3.45;;;1.52;;
25247;SDS011;13191;47.472;11.214;2022-12-08T12:31:40;2.40;;;1.35;;
25247;SDS011;13191;47.472;11.214;2022-12-08T12:34:19;3.47;;;1.65;;
25247;SDS011;13191;47.472;11.214;2022-12-08T12:36:54;2.88;;;1.40;;
25247;SDS011;13191;47.472;11.214;2022-12-08T12:39:25;3.47;;;1.33;;
25247;SDS011;13191;47.472;11.214;2022-12-08T12:41:55;5.63;;;2.25;;
25247;SDS011;13191;47.472;11.214;2022-12-08T12:44:24;2.90;;;1.40;;
25247;SDS011;13191;47.472;11.214;2022-12-08T12:47:03;5.43;;;1.25;;
25247;SDS011;13191;47.472;11.214;2022-12-08T12:55:23;3.30;;;1.63;;
25247;SDS011;13191;47.472;11.214;2022-12-08T12:57:35;2.00;;;1.20;;
25247;SDS011;13191;47.472;11.214;2022-12-08T13:02:36;3.17;;;1.50;;
25247;SDS011;13191;47.472;11.214;2022-12-08T13:07:53;2.75;;;1.20;;
25247;SDS011;13191;47.472;11.214;2022-12-08T13:10:32;1.77;;;1.08;;
25247;SDS011;13191;47.472;11.214;2022-12-08T13:18:15;1.63;;;0.85;;
25247;SDS011;13191;47.472;11.214;2022-12-08T13:20:45;1.65;;;1.10;;
25247;SDS011;13191;47.472;11.214;2022-12-08T13:23:28;3.25;;;1.27;;
25247;SDS011;13191;47.472;11.214;2022-12-08T13:26:23;1.50;;;1.08;;
25247;SDS011;13191;47.472;11.214;2022-12-08T13:31:42;1.38;;;0.73;;
25247;SDS011;13191;47.472;11.214;2022-12-08T13:42:05;1.92;;;1.05;;
25247;SDS011;13191;47.472;11.214;2022-12-08T13:47:16;2.38;;;0.98;;
25247;SDS011;13191;47.472;11.214;2022-12-08T13:49:49;2.00;;;1.00;;
25247;SDS011;13191;47.472;11.214;2022-12-08T13:52:43;2.63;;;1.10;;
25247;SDS011;13191;47.472;11.214;2022-12-08T13:55:22;2.53;;;1.10;;
25247;SDS011;13191;47.472;11.214;2022-12-08T13:57:54;3.45;;;0.75;;
25247;SDS011;13191;47.472;11.214;2022-12-08T14:00:21;1.52;;;0.90;;
25247;SDS011;13191;47.472;11.214;2022-12-08T14:02:48;2.05;;;0.90;;
25247;SDS011;13191;47.472;11.214;2022-12-08T14:05:20;2.22;;;1.10;;
25247;SDS011;13191;47.472;11.214;2022-12-08T14:07:50;3.13;;;1.23;;
25247;SDS011;13191;47.472;11.214;2022-12-08T14:10:22;1.92;;;0.82;;
25247;SDS011;13191;47.472;11.214;2022-12-08T14:12:54;3.05;;;1.38;;
25247;SDS011;13191;47.472;11.214;2022-12-08T14:15:24;2.03;;;0.63;;
25247;SDS011;13191;47.472;11.214;2022-12-08T14:17:51;1.70;;;1.00;;
25247;SDS011;13191;47.472;11.214;2022-12-08T14:20:22;2.33;;;0.95;;
25247;SDS011;13191;47.472;11.214;2022-12-08T14:22:53;2.55;;;0.90;;
25247;SDS011;13191;47.472;11.214;2022-12-08T14:25:19;1.50;;;0.80;;
25247;SDS011;13191;47.472;11.214;2022-12-08T14:27:46;1.42;;;0.90;;
25247;SDS011;13191;47.472;11.214;2022-12-08T14:32:42;2.42;;;1.30;;
25247;SDS011;13191;47.472;11.214;2022-12-08T14:35:25;1.17;;;0.63;;
25247;SDS011;13191;47.472;11.214;2022-12-08T14:40:21;12.27;;;1.52;;
25247;SDS011;13191;47.472;11.214;2022-12-08T14:42:50;3.35;;;0.90;;
25247;SDS011;13191;47.472;11.214;2022-12-08T14:45:17;1.60;;;0.93;;
25247;SDS011;13191;47.472;11.214;2022-12-08T14:47:43;1.48;;;0.70;;
25247;SDS011;13191;47.472;11.214;2022-12-08T14:53:17;2.55;;;1.00;;
25247;SDS011;13191;47.472;11.214;2022-12-08T14:55:46;1.45;;;0.90;;
25247;SDS011;13191;47.472;11.214;2022-12-08T14:58:20;4.95;;;2.10;;
25247;SDS011;13191;47.472;11.214;2022-12-08T15:00:51;1.73;;;0.90;;
25247;SDS011;13191;47.472;11.214;2022-12-08T15:03:23;3.42;;;1.10;;
25247;SDS011;13191;47.472;11.214;2022-12-08T15:05:52;2.65;;;0.95;;
25247;SDS011;13191;47.472;11.214;2022-12-08T15:08:20;2.42;;;1.10;;
25247;SDS011;13191;47.472;11.214;2022-12-08T15:10:46;2.05;;;0.85;;
25247;SDS011;13191;47.472;11.214;2022-12-08T15:13:31;1.92;;;0.90;;
25247;SDS011;13191;47.472;11.214;2022-12-08T15:15:57;2.05;;;0.88;;
25247;SDS011;13191;47.472;11.214;2022-12-08T15:18:39;1.73;;;1.05;;
25247;SDS011;13191;47.472;11.214;2022-12-08T15:21:05;5.40;;;0.88;;
25247;SDS011;13191;47.472;11.214;2022-12-08T15:23:43;1.70;;;1.02;;
25247;SDS011;13191;47.472;11.214;2022-12-08T15:26:20;2.50;;;1.05;;
25247;SDS011;13191;47.472;11.214;2022-12-08T15:28:47;6.20;;;1.00;;
25247;SDS011;13191;47.472;11.214;2022-12-08T15:31:13;1.50;;;0.70;;
25247;SDS011;13191;47.472;11.214;2022-12-08T15:33:39;4.05;;;1.17;;
25247;SDS011;13191;47.472;11.214;2022-12-08T15:36:05;3.08;;;0.90;;
25247;SDS011;13191;47.472;11.214;2022-12-08T15:38:31;2.08;;;0.88;;
25247;SDS011;13191;47.472;11.214;2022-12-08T15:40:57;2.50;;;0.90;;
25247;SDS011;13191;47.472;11.214;2022-12-08T15:43:22;1.92;;;0.95;;
25247;SDS011;13191;47.472;11.214;2022-12-08T15:45:48;1.38;;;0.90;;
25247;SDS011;13191;47.472;11.214;2022-12-08T15:48:18;1.52;;;0.80;;
25247;SDS011;13191;47.472;11.214;2022-12-08T15:50:46;1.38;;;0.75;;
25247;SDS011;13191;47.472;11.214;2022-12-08T15:53:13;1.35;;;0.85;;
25247;SDS011;13191;47.472;11.214;2022-12-08T15:55:39;2.50;;;0.93;;
25247;SDS011;13191;47.472;11.214;2022-12-08T15:58:05;1.23;;;0.80;;
25247;SDS011;13191;47.472;11.214;2022-12-08T16:00:35;1.40;;;0.77;;
25247;SDS011;13191;47.472;11.214;2022-12-08T16:03:01;2.47;;;1.15;;
25247;SDS011;13191;47.472;11.214;2022-12-08T16:05:28;2.17;;;0.80;;
25247;SDS011;13191;47.472;11.214;2022-12-08T16:07:55;1.25;;;0.60;;
25247;SDS011;13191;47.472;11.214;2022-12-08T16:10:23;1.27;;;0.63;;
25247;SDS011;13191;47.472;11.214;2022-12-08T16:12:49;1.20;;;0.70;;
25247;SDS011;13191;47.472;11.214;2022-12-08T16:15:34;6.35;;;1.05;;
25247;SDS011;13191;47.472;11.214;2022-12-08T16:18:00;9.93;;;1.20;;
25247;SDS011;13191;47.472;11.214;2022-12-08T16:20:26;1.17;;;0.75;;
25247;SDS011;13191;47.472;11.214;2022-12-08T16:22:52;2.50;;;0.88;;
25247;SDS011;13191;47.472;11.214;2022-12-08T16:25:19;2.15;;;1.13;;
25247;SDS011;13191;47.472;11.214;2022-12-08T16:27:45;1.73;;;0.82;;
25247;SDS011;13191;47.472;11.214;2022-12-08T16:30:13;1.35;;;0.80;;